createdAt,value
2019-02-28T00:01:02.137Z,21.87
2019-02-28T00:03:32.321Z,21.40
2019-02-28T00:06:02.631Z,22.20
2019-02-28T00:08:32.408Z,21.90
2019-02-28T00:11:04.726Z,22.77
2019-02-28T00:13:33.094Z,22.87
2019-02-28T00:16:03.401Z,21.07
2019-02-28T00:18:33.440Z,21.23
2019-02-28T00:21:06.118Z,21.33
2019-02-28T00:23:34.103Z,21.70
2019-02-28T00:26:03.551Z,24.72
2019-02-28T00:28:33.027Z,28.15
2019-02-28T00:31:02.509Z,27.52
2019-02-28T00:33:31.988Z,26.27
2019-02-28T00:36:01.473Z,25.50
2019-02-28T00:38:30.918Z,22.32
2019-02-28T00:41:00.403Z,23.30
2019-02-28T00:43:29.847Z,21.40
2019-02-28T00:45:59.256Z,20.95
2019-02-28T00:48:28.672Z,21.42
2019-02-28T00:50:59.172Z,20.30
2019-02-28T00:53:28.633Z,21.37
2019-02-28T00:55:58.041Z,20.45
2019-02-28T00:58:28.849Z,19.42
2019-02-28T01:00:58.636Z,19.90
2019-02-28T01:03:27.969Z,19.87
2019-02-28T01:05:57.688Z,19.37
2019-02-28T01:08:27.024Z,21.45
2019-02-28T01:10:56.384Z,30.40
2019-02-28T01:13:28.037Z,24.45
2019-02-28T01:15:56.793Z,28.52
2019-02-28T01:18:26.440Z,22.00
2019-02-28T01:20:55.805Z,22.10
2019-02-28T01:23:25.151Z,28.52
2019-02-28T01:25:54.767Z,31.10
2019-02-28T01:28:26.971Z,23.15
2019-02-28T01:30:55.655Z,21.05
2019-02-28T01:33:25.710Z,20.25
2019-02-28T01:35:55.139Z,19.62
2019-02-28T01:38:25.239Z,19.77
2019-02-28T01:40:54.781Z,19.45
2019-02-28T01:43:28.521Z,19.32
2019-02-28T01:45:55.672Z,20.40
2019-02-28T01:48:25.021Z,20.05
2019-02-28T01:50:54.392Z,20.08
2019-02-28T01:53:23.734Z,21.70
2019-02-28T01:55:53.108Z,18.92
2019-02-28T01:58:22.446Z,19.62
2019-02-28T02:00:53.604Z,19.98
2019-02-28T02:03:22.852Z,19.90
2019-02-28T02:05:52.757Z,19.95
2019-02-28T02:08:22.105Z,20.02
2019-02-28T02:10:54.954Z,20.88
2019-02-28T02:13:22.514Z,21.77
2019-02-28T02:15:52.111Z,20.72
2019-02-28T02:18:21.500Z,21.48
2019-02-28T02:20:51.014Z,21.95
2019-02-28T02:23:20.373Z,21.52
2019-02-28T02:25:49.723Z,20.02
2019-02-28T02:28:19.065Z,18.50
2019-02-28T02:30:51.021Z,18.07
2019-02-28T02:33:19.556Z,18.77
2019-02-28T02:35:48.924Z,19.15
2019-02-28T02:38:18.262Z,18.62
2019-02-28T02:40:47.630Z,17.10
2019-02-28T02:43:16.973Z,18.42
2019-02-28T02:45:46.328Z,19.52
2019-02-28T02:48:15.677Z,18.90
2019-02-28T02:50:45.115Z,18.32
2019-02-28T02:53:14.473Z,18.02
2019-02-28T02:55:43.853Z,23.05
2019-02-28T02:58:13.260Z,16.85
2019-02-28T03:00:49.528Z,19.57
2019-02-28T03:03:13.672Z,17.48
2019-02-28T03:05:43.134Z,17.00
2019-02-28T03:08:12.476Z,16.93
2019-02-28T03:10:41.834Z,16.73
2019-02-28T03:13:11.197Z,17.25
2019-02-28T03:15:40.561Z,16.57
2019-02-28T03:18:09.943Z,15.90
2019-02-28T03:20:41.375Z,16.55
2019-02-28T03:23:10.357Z,17.45
2019-02-28T03:25:39.685Z,14.80
2019-02-28T03:28:09.117Z,16.65
2019-02-28T03:30:38.545Z,16.35
2019-02-28T03:33:07.897Z,16.80
2019-02-28T03:35:43.042Z,16.30
2019-02-28T03:38:11.516Z,16.42
2019-02-28T03:40:40.283Z,15.48
2019-02-28T03:43:10.578Z,16.30
2019-02-28T03:45:39.927Z,16.23
2019-02-28T03:48:09.303Z,16.10
2019-02-28T03:50:38.673Z,14.55
2019-02-28T03:53:08.041Z,15.25
2019-02-28T03:55:40.661Z,14.05
2019-02-28T03:58:08.459Z,14.13
2019-02-28T04:00:37.808Z,14.40
2019-02-28T04:03:07.186Z,15.75
2019-02-28T04:05:36.603Z,15.95
2019-02-28T04:08:05.965Z,16.00
2019-02-28T04:10:35.309Z,16.50
2019-02-28T04:13:04.768Z,15.90
2019-02-28T04:15:34.100Z,14.98
2019-02-28T04:18:07.463Z,15.28
2019-02-28T04:20:37.410Z,15.43
2019-02-28T04:23:05.586Z,15.00
2019-02-28T04:25:34.913Z,15.72
2019-02-28T04:28:04.289Z,17.82
2019-02-28T04:30:34.415Z,14.13
2019-02-28T04:33:03.848Z,26.90
2019-02-28T04:35:33.189Z,14.38
2019-02-28T04:38:02.567Z,18.27
2019-02-28T04:40:31.912Z,21.30
2019-02-28T04:43:01.285Z,23.15
2019-02-28T04:45:30.627Z,23.57
2019-02-28T04:47:59.995Z,17.57
2019-02-28T04:50:32.103Z,14.93
2019-02-28T04:53:00.470Z,13.03
2019-02-28T04:55:30.641Z,11.88
2019-02-28T04:58:00.081Z,12.23
2019-02-28T05:00:29.414Z,11.78
2019-02-28T05:02:58.780Z,12.55
2019-02-28T05:05:28.109Z,12.50
2019-02-28T05:07:57.476Z,12.95
2019-02-28T05:10:26.816Z,12.20
2019-02-28T05:12:56.176Z,13.38
2019-02-28T05:15:25.516Z,11.43
2019-02-28T05:17:55.936Z,12.82
2019-02-28T05:20:26.457Z,11.30
2019-02-28T05:22:55.824Z,10.63
2019-02-28T05:25:25.198Z,11.30
2019-02-28T05:27:54.534Z,11.55
2019-02-28T05:30:23.882Z,9.85
2019-02-28T05:32:53.552Z,9.93
2019-02-28T05:35:26.594Z,10.28
2019-02-28T05:37:53.993Z,10.03
2019-02-28T05:40:23.332Z,10.25
2019-02-28T05:42:57.956Z,10.95
2019-02-28T05:45:23.821Z,10.10
2019-02-28T05:47:53.540Z,9.93
2019-02-28T05:50:22.910Z,9.85
2019-02-28T05:52:52.249Z,10.50
2019-02-28T05:55:25.602Z,9.50
2019-02-28T05:57:52.661Z,10.25
2019-02-28T06:00:24.511Z,12.65
2019-02-28T06:02:57.826Z,13.03
2019-02-28T06:05:25.735Z,11.70
2019-02-28T06:07:55.156Z,10.03
2019-02-28T06:10:25.007Z,13.58
2019-02-28T06:12:54.354Z,10.40
2019-02-28T06:15:23.736Z,10.00
2019-02-28T06:17:55.021Z,10.68
2019-02-28T06:20:24.913Z,12.18
2019-02-28T06:22:54.250Z,9.70
2019-02-28T06:25:25.511Z,10.45
2019-02-28T06:27:54.661Z,10.45
2019-02-28T06:30:24.036Z,10.45
2019-02-28T06:32:57.810Z,11.03
2019-02-28T06:35:24.918Z,10.78
2019-02-28T06:37:54.263Z,10.88
2019-02-28T06:40:23.656Z,11.75
2019-02-28T06:42:52.984Z,11.50
2019-02-28T06:45:22.905Z,12.85
2019-02-28T06:47:52.252Z,13.08
2019-02-28T06:50:21.623Z,11.33
2019-02-28T06:52:51.077Z,13.18
2019-02-28T06:55:24.879Z,11.55
2019-02-28T06:57:54.340Z,11.97
2019-02-28T07:00:23.762Z,12.85
2019-02-28T07:02:53.749Z,12.45
2019-02-28T07:05:25.755Z,13.10
2019-02-28T07:07:54.251Z,12.35
2019-02-28T07:10:23.802Z,11.05
2019-02-28T07:12:53.751Z,11.33
2019-02-28T07:15:24.798Z,10.95
2019-02-28T07:17:54.333Z,12.98
2019-02-28T07:20:23.720Z,14.28
2019-02-28T07:22:55.588Z,13.70
2019-02-28T07:25:25.013Z,14.18
2019-02-28T07:27:54.361Z,13.72
2019-02-28T07:30:24.182Z,11.90
2019-02-28T07:32:53.995Z,13.50
2019-02-28T07:35:23.374Z,12.45
2019-02-28T07:37:54.423Z,12.82
2019-02-28T07:40:23.991Z,14.68
2019-02-28T07:42:53.982Z,12.98
2019-02-28T07:45:23.424Z,13.13
2019-02-28T07:47:52.969Z,18.77
2019-02-28T07:50:22.295Z,14.13
2019-02-28T07:52:53.145Z,17.95
2019-02-28T07:55:23.237Z,14.70
2019-02-28T07:57:56.176Z,17.77
2019-02-28T08:00:25.581Z,15.30
2019-02-28T08:02:54.979Z,18.07
2019-02-28T08:05:29.701Z,14.20
2019-02-28T08:07:58.179Z,15.93
2019-02-28T08:10:29.277Z,14.20
2019-02-28T08:12:58.613Z,15.28
2019-02-28T08:15:29.852Z,16.20
2019-02-28T08:17:59.207Z,15.30
2019-02-28T08:20:30.681Z,15.65
2019-02-28T08:22:59.587Z,16.00
2019-02-28T08:25:28.958Z,15.45
2019-02-28T08:27:59.683Z,14.73
2019-02-28T08:30:32.610Z,15.78
2019-02-28T08:33:03.095Z,14.15
2019-02-28T08:35:34.818Z,15.13
2019-02-28T08:38:03.499Z,14.98
2019-02-28T08:40:32.889Z,16.93
2019-02-28T08:43:02.235Z,15.30
2019-02-28T08:45:33.262Z,16.12
2019-02-28T08:48:02.657Z,16.48
2019-02-28T08:50:32.057Z,15.30
2019-02-28T08:53:05.336Z,15.85
2019-02-28T08:55:34.724Z,15.88
2019-02-28T08:58:06.255Z,17.40
2019-02-28T09:00:35.149Z,16.17
2019-02-28T09:03:04.500Z,16.48
2019-02-28T09:05:33.872Z,15.68
2019-02-28T09:08:03.251Z,14.95
2019-02-28T09:10:32.693Z,15.43
2019-02-28T09:13:02.070Z,17.92
2019-02-28T09:15:31.468Z,16.85
2019-02-28T09:18:00.799Z,16.97
2019-02-28T09:20:30.505Z,18.82
2019-02-28T09:23:02.162Z,17.95
2019-02-28T09:25:31.376Z,18.57
2019-02-28T09:28:00.756Z,18.52
2019-02-28T09:30:36.320Z,17.85
2019-02-28T09:33:05.776Z,17.98
2019-02-28T09:35:35.121Z,16.65
2019-02-28T09:38:08.035Z,20.37
2019-02-28T09:40:36.197Z,17.98
2019-02-28T09:43:05.571Z,19.00
2019-02-28T09:45:35.184Z,19.23
2019-02-28T09:48:04.632Z,20.30
2019-02-28T09:50:33.982Z,19.12
2019-02-28T09:53:03.356Z,18.77
2019-02-28T09:55:35.314Z,22.95
2019-02-28T09:58:03.782Z,18.15
2019-02-28T10:00:33.201Z,18.70
2019-02-28T10:03:02.569Z,18.37
2019-02-28T10:05:31.982Z,20.85
2019-02-28T10:08:02.872Z,19.70
2019-02-28T10:10:33.045Z,18.60
2019-02-28T10:13:02.393Z,18.52
2019-02-28T10:15:31.735Z,19.85
2019-02-28T10:18:04.446Z,18.75
2019-02-28T10:20:41.573Z,19.15
2019-02-28T10:23:10.955Z,18.85
2019-02-28T10:25:43.470Z,20.30
2019-02-28T10:28:11.728Z,17.87
2019-02-28T10:30:41.080Z,18.82
2019-02-28T10:33:10.445Z,18.57
2019-02-28T10:35:39.808Z,19.10
2019-02-28T10:38:10.278Z,20.55
2019-02-28T10:40:39.693Z,18.17
2019-02-28T10:43:12.155Z,19.12
2019-02-28T10:45:42.142Z,19.62
2019-02-28T10:48:11.281Z,19.27
2019-02-28T10:50:40.634Z,19.87
2019-02-28T10:53:10.082Z,18.45
2019-02-28T10:55:39.460Z,19.27
2019-02-28T10:58:08.984Z,17.70
2019-02-28T11:00:41.036Z,19.90
2019-02-28T11:03:10.412Z,18.87
2019-02-28T11:05:44.372Z,18.90
2019-02-28T11:08:17.397Z,16.55
2019-02-28T11:10:46.453Z,17.20
2019-02-28T11:13:18.328Z,18.40
2019-02-28T11:15:49.206Z,18.15
2019-02-28T11:18:18.701Z,18.15
2019-02-28T11:20:48.052Z,21.12
2019-02-28T11:23:17.430Z,19.67
2019-02-28T11:25:46.778Z,19.55
2019-02-28T11:28:16.272Z,18.75
2019-02-28T11:30:46.413Z,18.87
2019-02-28T11:33:17.314Z,19.37
2019-02-28T11:35:46.662Z,19.90
2019-02-28T11:38:20.348Z,19.85
2019-02-28T11:40:47.094Z,18.50
2019-02-28T11:43:16.474Z,20.15
2019-02-28T11:45:47.521Z,18.35
2019-02-28T11:48:20.510Z,19.62
2019-02-28T11:50:50.093Z,19.37
2019-02-28T11:53:19.493Z,18.90
2019-02-28T11:55:48.873Z,19.60
2019-02-28T11:58:18.283Z,19.77
2019-02-28T12:00:47.680Z,20.55
2019-02-28T12:03:17.171Z,20.43
2019-02-28T12:05:50.105Z,21.30
2019-02-28T12:08:17.686Z,20.50
2019-02-28T12:10:47.044Z,18.80
2019-02-28T12:13:19.707Z,22.62
2019-02-28T12:15:47.571Z,20.05
2019-02-28T12:18:16.979Z,20.10
2019-02-28T12:20:46.361Z,22.02
2019-02-28T12:23:15.812Z,20.23
2019-02-28T12:25:45.275Z,20.50
2019-02-28T12:28:14.627Z,23.40
2019-02-28T12:30:44.473Z,20.80
2019-02-28T12:33:15.419Z,21.87
2019-02-28T12:35:44.971Z,18.92
2019-02-28T12:38:14.481Z,19.70
2019-02-28T12:40:45.604Z,21.25
2019-02-28T12:43:15.079Z,20.65
2019-02-28T12:45:47.674Z,20.37
2019-02-28T12:48:17.033Z,21.60
2019-02-28T12:50:46.477Z,20.50
2019-02-28T12:53:15.832Z,21.30
2019-02-28T12:55:45.216Z,22.90
2019-02-28T12:58:14.558Z,20.10
2019-02-28T13:00:45.869Z,20.88
2019-02-28T13:03:20.181Z,22.22
2019-02-28T13:05:49.504Z,20.70
2019-02-28T13:08:19.155Z,21.55
2019-02-28T13:10:48.743Z,21.52
2019-02-28T13:13:21.630Z,23.42
2019-02-28T13:15:49.605Z,19.45
2019-02-28T13:18:19.287Z,19.37
2019-02-28T13:20:48.753Z,19.92
2019-02-28T13:23:19.369Z,22.62
2019-02-28T13:25:49.134Z,23.92
2019-02-28T13:28:22.441Z,21.25
2019-02-28T13:30:51.973Z,20.97
2019-02-28T13:33:20.914Z,20.97
2019-02-28T13:35:50.302Z,20.50
2019-02-28T13:38:20.041Z,20.37
2019-02-28T13:40:49.443Z,23.05
2019-02-28T13:43:20.903Z,20.15
2019-02-28T13:45:50.626Z,20.68
2019-02-28T13:48:26.058Z,21.23
2019-02-28T13:50:52.293Z,20.08
2019-02-28T13:53:23.440Z,20.77
2019-02-28T13:55:57.824Z,21.82
2019-02-28T13:58:24.040Z,19.52
2019-02-28T14:00:54.140Z,19.60
2019-02-28T14:03:23.484Z,20.65
2019-02-28T14:05:52.878Z,21.68
2019-02-28T14:08:22.222Z,20.30
2019-02-28T14:10:51.685Z,22.67
2019-02-28T14:13:21.112Z,20.37
2019-02-28T14:15:52.345Z,22.75
2019-02-28T14:18:22.389Z,23.00
2019-02-28T14:20:52.743Z,21.85
2019-02-28T14:23:22.443Z,30.05
2019-02-28T14:25:52.301Z,21.20
2019-02-28T14:28:21.649Z,20.72
2019-02-28T14:30:51.035Z,20.37
2019-02-28T14:33:20.756Z,21.48
2019-02-28T14:35:50.144Z,20.60
2019-02-28T14:38:19.495Z,21.87
2019-02-28T14:40:49.562Z,22.67
2019-02-28T14:43:20.765Z,21.07
2019-02-28T14:45:50.157Z,22.40
2019-02-28T14:48:19.518Z,21.50
2019-02-28T14:50:50.699Z,21.82
2019-02-28T14:53:19.926Z,23.20
2019-02-28T14:55:49.310Z,20.92
2019-02-28T14:58:21.266Z,23.92
2019-02-28T15:00:49.781Z,21.85
2019-02-28T15:03:19.227Z,23.00
2019-02-28T15:05:48.670Z,24.95
2019-02-28T15:08:18.053Z,22.90
2019-02-28T15:10:47.572Z,24.27
2019-02-28T15:13:17.009Z,22.40
2019-02-28T15:15:49.546Z,24.60
2019-02-28T15:18:20.244Z,23.40
2019-02-28T15:20:49.595Z,23.90
2019-02-28T15:23:18.974Z,26.95
2019-02-28T15:25:50.763Z,22.02
2019-02-28T15:28:19.410Z,28.38
2019-02-28T15:30:48.746Z,28.52
2019-02-28T15:33:18.119Z,29.50
2019-02-28T15:35:49.851Z,27.90
2019-02-28T15:38:18.554Z,26.73
2019-02-28T15:40:48.164Z,29.50
2019-02-28T15:43:18.493Z,30.88
2019-02-28T15:45:47.868Z,39.08
2019-02-28T15:48:17.243Z,35.70
2019-02-28T15:50:51.285Z,31.42
2019-02-28T15:53:17.656Z,32.03
2019-02-28T15:55:47.080Z,34.67
2019-02-28T15:58:16.766Z,32.70
2019-02-28T16:00:46.192Z,34.95
2019-02-28T16:03:16.805Z,33.55
2019-02-28T16:05:46.759Z,33.95
2019-02-28T16:08:16.246Z,35.30
2019-02-28T16:10:53.396Z,36.93
2019-02-28T16:13:16.755Z,39.73
2019-02-28T16:15:46.290Z,61.65
2019-02-28T16:18:17.196Z,103.58
2019-02-28T16:20:46.616Z,123.47
2019-02-28T16:23:16.024Z,172.15
2019-02-28T16:25:46.913Z,165.47
2019-02-28T16:28:16.456Z,123.80
2019-02-28T16:30:45.810Z,78.17
2019-02-28T16:33:15.194Z,100.30
2019-02-28T16:35:46.693Z,124.75
2019-02-28T16:38:15.627Z,82.67
2019-02-28T16:40:45.954Z,99.30
2019-02-28T16:43:17.478Z,73.78
2019-02-28T16:45:48.009Z,64.05
2019-02-28T16:48:17.382Z,46.65
2019-02-28T16:50:46.731Z,49.80
2019-02-28T16:53:16.539Z,52.55
2019-02-28T16:55:45.930Z,61.23
2019-02-28T16:58:15.304Z,44.93
2019-02-28T17:00:46.292Z,46.28
2019-02-28T17:03:16.024Z,56.05
2019-02-28T17:05:45.333Z,58.28
2019-02-28T17:08:15.506Z,48.90
2019-02-28T17:10:45.823Z,97.57
2019-02-28T17:13:16.836Z,70.80
2019-02-28T17:16:01.733Z,38.88
2019-02-28T17:18:37.901Z,47.60
2019-02-28T17:21:07.244Z,89.10
2019-02-28T17:23:38.020Z,106.40
2019-02-28T17:26:07.856Z,68.45
2019-02-28T17:28:49.861Z,54.67
2019-02-28T17:31:26.541Z,57.75
2019-02-28T17:33:56.488Z,66.02
2019-02-28T17:36:25.844Z,72.97
2019-02-28T17:38:55.686Z,79.00
2019-02-28T17:41:25.479Z,95.25
2019-02-28T17:44:14.475Z,107.70
2019-02-28T17:46:46.555Z,114.45
2019-02-28T17:49:35.315Z,121.77
2019-02-28T17:52:20.127Z,100.25
2019-02-28T17:54:57.331Z,98.67
2019-02-28T17:57:35.808Z,132.20
2019-02-28T18:00:08.457Z,96.25
2019-02-28T18:03:09.739Z,78.87
2019-02-28T18:06:12.000Z,66.67
2019-02-28T18:08:45.419Z,63.42
2019-02-28T18:11:34.057Z,68.50
2019-02-28T18:14:21.911Z,53.65
2019-02-28T18:17:24.462Z,66.00
2019-02-28T18:20:17.312Z,57.48
2019-02-28T18:22:52.000Z,50.40
2019-02-28T18:25:30.221Z,52.65
2019-02-28T18:28:14.583Z,55.38
2019-02-28T18:31:11.161Z,52.27
2019-02-28T18:33:45.047Z,62.10
2019-02-28T18:36:17.080Z,54.30
2019-02-28T18:38:47.460Z,77.05
2019-02-28T18:41:17.279Z,60.00
2019-02-28T18:43:48.291Z,81.35
2019-02-28T18:46:17.973Z,58.48
2019-02-28T18:48:51.324Z,53.87
2019-02-28T18:51:19.381Z,57.85
2019-02-28T18:53:48.771Z,58.63
2019-02-28T18:56:19.581Z,69.27
2019-02-28T18:58:53.006Z,59.42
2019-02-28T19:01:25.690Z,50.95
2019-02-28T19:03:55.631Z,64.07
2019-02-28T19:06:27.764Z,56.15
2019-02-28T19:08:57.696Z,50.73
2019-02-28T19:11:28.524Z,56.23
2019-02-28T19:13:58.152Z,50.85
2019-02-28T19:16:29.719Z,49.42
2019-02-28T19:18:59.473Z,51.92
2019-02-28T19:21:28.909Z,63.05
2019-02-28T19:23:58.379Z,55.55
2019-02-28T19:26:29.532Z,52.80
2019-02-28T19:28:58.988Z,59.48
2019-02-28T19:31:28.542Z,54.48
2019-02-28T19:33:57.977Z,50.03
2019-02-28T19:36:28.380Z,48.60
2019-02-28T19:38:58.728Z,52.85
2019-02-28T19:41:28.292Z,58.10
2019-02-28T19:43:57.857Z,53.83
2019-02-28T19:46:27.884Z,56.35
2019-02-28T19:49:08.671Z,59.25
2019-02-28T19:51:40.239Z,49.38
2019-02-28T19:54:12.471Z,41.53
2019-02-28T19:56:43.566Z,42.60
2019-02-28T19:59:14.445Z,45.12
2019-02-28T20:01:48.230Z,47.95
2019-02-28T20:04:18.080Z,62.95
2019-02-28T20:06:47.632Z,45.03
2019-02-28T20:09:17.062Z,51.13
2019-02-28T20:11:46.475Z,45.78
2019-02-28T20:14:16.415Z,39.42
2019-02-28T20:16:46.035Z,40.43
2019-02-28T20:19:15.465Z,37.67
2019-02-28T20:21:44.922Z,38.48
2019-02-28T20:24:15.289Z,46.63
2019-02-28T20:26:44.882Z,53.85
2019-02-28T20:29:14.533Z,71.95
2019-02-28T20:31:44.119Z,78.57
2019-02-28T20:34:13.542Z,101.20
2019-02-28T20:36:42.990Z,81.25
2019-02-28T20:39:12.721Z,57.35
2019-02-28T20:41:42.349Z,40.23
2019-02-28T20:44:11.668Z,43.73
2019-02-28T20:46:41.125Z,38.73
2019-02-28T20:49:10.645Z,39.40
2019-02-28T20:51:41.230Z,39.83
2019-02-28T20:54:10.654Z,51.50
2019-02-28T20:56:40.229Z,73.90
2019-02-28T20:59:09.751Z,69.32
2019-02-28T21:01:39.131Z,86.70
2019-02-28T21:04:08.547Z,47.38
2019-02-28T21:06:38.036Z,39.20
2019-02-28T21:09:07.384Z,39.48
2019-02-28T21:11:36.883Z,38.20
2019-02-28T21:14:06.353Z,38.25
2019-02-28T21:16:35.732Z,36.55
2019-02-28T21:19:05.217Z,39.10
2019-02-28T21:21:34.730Z,36.13
2019-02-28T21:24:05.286Z,36.75
2019-02-28T21:26:34.722Z,35.85
2019-02-28T21:29:04.105Z,36.03
2019-02-28T21:31:34.092Z,36.53
2019-02-28T21:34:03.553Z,34.98
2019-02-28T21:36:33.037Z,36.90
2019-02-28T21:39:02.546Z,35.13
2019-02-28T21:41:31.998Z,34.53
2019-02-28T21:44:01.408Z,35.73
2019-02-28T21:46:30.883Z,36.48
2019-02-28T21:49:01.912Z,34.92
2019-02-28T21:51:31.300Z,33.60
2019-02-28T21:54:01.059Z,34.60
2019-02-28T21:56:30.575Z,33.83
2019-02-28T21:59:00.017Z,35.83
2019-02-28T22:01:29.513Z,34.58
2019-02-28T22:03:58.899Z,32.60
2019-02-28T22:06:28.494Z,32.73
2019-02-28T22:08:58.099Z,32.78
2019-02-28T22:11:27.770Z,32.73
2019-02-28T22:13:57.657Z,30.52
2019-02-28T22:16:27.053Z,31.33
2019-02-28T22:18:56.848Z,31.07
2019-02-28T22:21:26.186Z,31.37
2019-02-28T22:23:55.829Z,33.92
2019-02-28T22:26:25.440Z,34.80
2019-02-28T22:28:54.875Z,35.33
2019-02-28T22:31:30.055Z,34.13
2019-02-28T22:34:04.043Z,34.13
2019-02-28T22:36:35.095Z,39.13
2019-02-28T22:39:05.280Z,37.35
2019-02-28T22:41:34.625Z,36.85
2019-02-28T22:44:04.133Z,43.08
2019-02-28T22:46:33.468Z,45.70
2019-02-28T22:49:02.835Z,35.45
2019-02-28T22:51:32.186Z,33.10
2019-02-28T22:54:01.590Z,31.65
2019-02-28T22:56:31.099Z,29.05
2019-02-28T22:59:00.488Z,28.20
2019-02-28T23:01:29.995Z,27.00
2019-02-28T23:03:59.675Z,23.98
2019-02-28T23:06:29.009Z,26.20
2019-02-28T23:08:58.411Z,29.87
2019-02-28T23:11:27.724Z,27.20
2019-02-28T23:13:57.649Z,24.57
2019-02-28T23:16:27.002Z,22.52
2019-02-28T23:18:56.719Z,23.80
2019-02-28T23:21:26.059Z,22.55
2019-02-28T23:23:55.992Z,21.27
2019-02-28T23:26:25.776Z,21.68
2019-02-28T23:28:58.497Z,22.65
2019-02-28T23:31:47.575Z,20.40
2019-02-28T23:34:32.334Z,21.12
2019-02-28T23:37:01.673Z,20.97
2019-02-28T23:39:31.055Z,20.02
2019-02-28T23:42:00.400Z,21.60
2019-02-28T23:44:29.771Z,22.27
2019-02-28T23:46:59.137Z,21.35
2019-02-28T23:49:28.574Z,22.30
2019-02-28T23:51:57.945Z,21.90
2019-02-28T23:54:27.285Z,21.42
2019-02-28T23:56:56.728Z,20.72
2019-02-28T23:59:26.143Z,23.45
